sensor_id;sensor_type;location;lat;lon;timestamp;pressure;altitude;pressure_sealevel;temperature;humidity
5753;BME280;2901;42.140;24.760;2023-12-20T00:01:16;99881.59;;;5.12;100.00
5753;BME280;2901;42.140;24.760;2023-12-20T00:03:41;99878.22;;;5.13;100.00
5753;BME280;2901;42.140;24.760;2023-12-20T00:06:07;99877.28;;;5.11;100.00
5753;BME280;2901;42.140;24.760;2023-12-20T00:08:32;99877.28;;;5.10;100.00
5753;BME280;2901;42.140;24.760;2023-12-20T00:10:57;99871.28;;;5.09;100.00
5753;BME280;2901;42.140;24.760;2023-12-20T00:13:23;99881.47;;;5.06;100.00
5753;BME280;2901;42.140;24.760;2023-12-20T00:15:48;99864.34;;;5.05;100.00
5753;BME280;2901;42.140;24.760;2023-12-20T00:18:13;99868.59;;;5.05;100.00
5753;BME280;2901;42.140;24.760;2023-12-20T00:20:39;99863.50;;;5.06;100.00
5753;BME280;2901;42.140;24.760;2023-12-20T00:23:04;99864.34;;;5.05;100.00
5753;BME280;2901;42.140;24.760;2023-12-20T00:25:30;99871.09;;;5.00;100.00
5753;BME280;2901;42.140;24.760;2023-12-20T00:27:55;99864.16;;;4.96;100.00
5753;BME280;2901;42.140;24.760;2023-12-20T00:30:21;99862.41;;;4.95;100.00
5753;BME280;2901;42.140;24.760;2023-12-20T00:32:46;99857.94;;;4.87;100.00
5753;BME280;2901;42.140;24.760;2023-12-20T00:35:18;99863.09;;;4.87;100.00
5753;BME280;2901;42.140;24.760;2023-12-20T00:37:44;99839.75;;;4.76;100.00
5753;BME280;2901;42.140;24.760;2023-12-20T00:40:09;99837.25;;;4.79;100.00
5753;BME280;2901;42.140;24.760;2023-12-20T00:42:35;99833.81;;;4.77;100.00
5753;BME280;2901;42.140;24.760;2023-12-20T00:45:01;99836.31;;;4.74;100.00
5753;BME280;2901;42.140;24.760;2023-12-20T00:47:28;99831.19;;;4.76;100.00
5753;BME280;2901;42.140;24.760;2023-12-20T00:49:53;99821.72;;;4.73;100.00
5753;BME280;2901;42.140;24.760;2023-12-20T00:52:18;99826.88;;;4.73;100.00
5753;BME280;2901;42.140;24.760;2023-12-20T00:54:44;99820.81;;;4.71;100.00
5753;BME280;2901;42.140;24.760;2023-12-20T00:57:10;99813.06;;;4.68;100.00
5753;BME280;2901;42.140;24.760;2023-12-20T00:59:35;99810.44;;;4.65;100.00
5753;BME280;2901;42.140;24.760;2023-12-20T01:02:01;99815.63;;;4.68;100.00
5753;BME280;2901;42.140;24.760;2023-12-20T01:04:27;99818.94;;;4.62;100.00
5753;BME280;2901;42.140;24.760;2023-12-20T01:06:52;99816.97;;;4.52;100.00
5753;BME280;2901;42.140;24.760;2023-12-20T01:09:17;99809.16;;;4.46;100.00
5753;BME280;2901;42.140;24.760;2023-12-20T01:11:43;99804.78;;;4.41;100.00
5753;BME280;2901;42.140;24.760;2023-12-20T01:14:09;99798.66;;;4.36;100.00
5753;BME280;2901;42.140;24.760;2023-12-20T01:16:34;99802.97;;;4.38;100.00
5753;BME280;2901;42.140;24.760;2023-12-20T01:19:00;99791.88;;;4.38;100.00
5753;BME280;2901;42.140;24.760;2023-12-20T01:21:25;99789.38;;;4.41;100.00
5753;BME280;2901;42.140;24.760;2023-12-20T01:23:50;99780.97;;;4.46;100.00
5753;BME280;2901;42.140;24.760;2023-12-20T01:26:16;99776.78;;;4.51;100.00
5753;BME280;2901;42.140;24.760;2023-12-20T01:28:42;99779.47;;;4.56;100.00
5753;BME280;2901;42.140;24.760;2023-12-20T01:31:08;99770.09;;;4.58;100.00
5753;BME280;2901;42.140;24.760;2023-12-20T01:33:33;99774.47;;;4.62;100.00
5753;BME280;2901;42.140;24.760;2023-12-20T01:35:59;99768.41;;;4.58;100.00
5753;BME280;2901;42.140;24.760;2023-12-20T01:38:25;99767.53;;;4.58;100.00
5753;BME280;2901;42.140;24.760;2023-12-20T01:40:50;99770.00;;;4.53;100.00
5753;BME280;2901;42.140;24.760;2023-12-20T01:43:16;99767.47;;;4.55;100.00
5753;BME280;2901;42.140;24.760;2023-12-20T01:45:41;99766.81;;;4.63;100.00
5753;BME280;2901;42.140;24.760;2023-12-20T01:48:08;99774.53;;;4.65;100.00
5753;BME280;2901;42.140;24.760;2023-12-20T01:50:35;99761.56;;;4.59;100.00
5753;BME280;2901;42.140;24.760;2023-12-20T01:53:02;99760.28;;;4.39;100.00
5753;BME280;2901;42.140;24.760;2023-12-20T01:55:29;99764.13;;;4.20;100.00
5753;BME280;2901;42.140;24.760;2023-12-20T01:57:57;99758.53;;;4.00;100.00
5753;BME280;2901;42.140;24.760;2023-12-20T02:00:23;99751.28;;;3.83;100.00
5753;BME280;2901;42.140;24.760;2023-12-20T02:02:50;99754.13;;;3.60;100.00
5753;BME280;2901;42.140;24.760;2023-12-20T02:05:16;99740.84;;;3.41;100.00
5753;BME280;2901;42.140;24.760;2023-12-20T02:07:42;99739.88;;;3.36;100.00
5753;BME280;2901;42.140;24.760;2023-12-20T02:10:07;99740.47;;;3.27;100.00
5753;BME280;2901;42.140;24.760;2023-12-20T02:12:33;99730.13;;;3.23;100.00
5753;BME280;2901;42.140;24.760;2023-12-20T02:14:59;99730.16;;;3.24;100.00
5753;BME280;2901;42.140;24.760;2023-12-20T02:17:25;99724.28;;;3.28;100.00
5753;BME280;2901;42.140;24.760;2023-12-20T02:19:51;99718.22;;;3.25;100.00
5753;BME280;2901;42.140;24.760;2023-12-20T02:22:16;99723.50;;;3.31;100.00
5753;BME280;2901;42.140;24.760;2023-12-20T02:24:41;99716.72;;;3.33;100.00
5753;BME280;2901;42.140;24.760;2023-12-20T02:27:07;99714.13;;;3.31;100.00
5753;BME280;2901;42.140;24.760;2023-12-20T02:29:33;99705.38;;;3.22;100.00
5753;BME280;2901;42.140;24.760;2023-12-20T02:31:59;99715.88;;;3.32;100.00
5753;BME280;2901;42.140;24.760;2023-12-20T02:34:24;99717.75;;;3.39;100.00
5753;BME280;2901;42.140;24.760;2023-12-20T02:36:50;99713.63;;;3.44;100.00
5753;BME280;2901;42.140;24.760;2023-12-20T02:39:16;99717.28;;;3.54;100.00
5753;BME280;2901;42.140;24.760;2023-12-20T02:41:41;99704.63;;;3.60;100.00
5753;BME280;2901;42.140;24.760;2023-12-20T02:44:06;99713.25;;;3.63;100.00
5753;BME280;2901;42.140;24.760;2023-12-20T02:46:32;99710.75;;;3.65;100.00
5753;BME280;2901;42.140;24.760;2023-12-20T02:48:57;99697.75;;;3.59;100.00
5753;BME280;2901;42.140;24.760;2023-12-20T02:51:23;99698.53;;;3.55;100.00
5753;BME280;2901;42.140;24.760;2023-12-20T02:53:48;99690.94;;;3.58;100.00
5753;BME280;2901;42.140;24.760;2023-12-20T02:56:13;99693.41;;;3.55;100.00
5753;BME280;2901;42.140;24.760;2023-12-20T02:58:39;99688.06;;;3.46;100.00
5753;BME280;2901;42.140;24.760;2023-12-20T03:01:05;99682.03;;;3.44;100.00
5753;BME280;2901;42.140;24.760;2023-12-20T03:03:31;99664.78;;;3.35;100.00
5753;BME280;2901;42.140;24.760;2023-12-20T03:05:56;99684.75;;;3.50;100.00
5753;BME280;2901;42.140;24.760;2023-12-20T03:08:22;99681.44;;;3.54;100.00
5753;BME280;2901;42.140;24.760;2023-12-20T03:10:47;99668.44;;;3.46;100.00
5753;BME280;2901;42.140;24.760;2023-12-20T03:13:12;99659.16;;;3.50;100.00
5753;BME280;2901;42.140;24.760;2023-12-20T03:15:38;99678.28;;;3.65;100.00
5753;BME280;2901;42.140;24.760;2023-12-20T03:18:03;99673.28;;;3.70;100.00
5753;BME280;2901;42.140;24.760;2023-12-20T03:20:29;99681.09;;;3.76;100.00
5753;BME280;2901;42.140;24.760;2023-12-20T03:22:58;99674.41;;;3.81;100.00
5753;BME280;2901;42.140;24.760;2023-12-20T03:25:23;99676.25;;;3.87;100.00
5753;BME280;2901;42.140;24.760;2023-12-20T03:27:49;99665.19;;;3.88;100.00
5753;BME280;2901;42.140;24.760;2023-12-20T03:30:14;99666.13;;;3.91;100.00
5753;BME280;2901;42.140;24.760;2023-12-20T03:32:39;99667.00;;;3.92;100.00
5753;BME280;2901;42.140;24.760;2023-12-20T03:35:05;99666.13;;;3.91;100.00
5753;BME280;2901;42.140;24.760;2023-12-20T03:37:31;99660.00;;;3.86;100.00
5753;BME280;2901;42.140;24.760;2023-12-20T03:39:56;99666.88;;;3.87;100.00
5753;BME280;2901;42.140;24.760;2023-12-20T03:42:21;99657.25;;;3.77;100.00
5753;BME280;2901;42.140;24.760;2023-12-20T03:44:47;99662.25;;;3.73;100.00
5753;BME280;2901;42.140;24.760;2023-12-20T03:47:12;99655.47;;;3.75;100.00
5753;BME280;2901;42.140;24.760;2023-12-20T03:49:37;99658.00;;;3.73;100.00
5753;BME280;2901;42.140;24.760;2023-12-20T03:52:04;99659.53;;;3.65;100.00
5753;BME280;2901;42.140;24.760;2023-12-20T03:54:29;99668.09;;;3.67;100.00
5753;BME280;2901;42.140;24.760;2023-12-20T03:56:55;99669.59;;;3.59;100.00
5753;BME280;2901;42.140;24.760;2023-12-20T03:59:20;99651.69;;;3.59;100.00
5753;BME280;2901;42.140;24.760;2023-12-20T04:01:45;99667.97;;;3.62;100.00
5753;BME280;2901;42.140;24.760;2023-12-20T04:04:13;99662.91;;;3.64;100.00
5753;BME280;2901;42.140;24.760;2023-12-20T04:06:38;99666.22;;;3.60;100.00
5753;BME280;2901;42.140;24.760;2023-12-20T04:09:04;99673.88;;;3.58;100.00
5753;BME280;2901;42.140;24.760;2023-12-20T04:11:29;99662.03;;;3.62;100.00
5753;BME280;2901;42.140;24.760;2023-12-20T04:13:55;99657.72;;;3.61;100.00
5753;BME280;2901;42.140;24.760;2023-12-20T04:16:20;99648.22;;;3.55;100.00
5753;BME280;2901;42.140;24.760;2023-12-20T04:18:46;99656.06;;;3.63;100.00
5753;BME280;2901;42.140;24.760;2023-12-20T04:21:11;99650.09;;;3.64;100.00
5753;BME280;2901;42.140;24.760;2023-12-20T04:23:36;99653.56;;;3.66;100.00
5753;BME280;2901;42.140;24.760;2023-12-20T04:26:02;99651.94;;;3.70;100.00
5753;BME280;2901;42.140;24.760;2023-12-20T04:28:27;99647.75;;;3.72;100.00
5753;BME280;2901;42.140;24.760;2023-12-20T04:30:55;99637.31;;;3.64;100.00
5753;BME280;2901;42.140;24.760;2023-12-20T04:33:21;99661.34;;;3.71;100.00
5753;BME280;2901;42.140;24.760;2023-12-20T04:35:46;99649.38;;;3.70;100.00
5753;BME280;2901;42.140;24.760;2023-12-20T04:38:12;99644.25;;;3.68;100.00
5753;BME280;2901;42.140;24.760;2023-12-20T04:40:37;99642.53;;;3.69;100.00
5753;BME280;2901;42.140;24.760;2023-12-20T04:43:03;99643.31;;;3.66;100.00
5753;BME280;2901;42.140;24.760;2023-12-20T04:45:28;99633.06;;;3.64;100.00
5753;BME280;2901;42.140;24.760;2023-12-20T04:47:54;99628.81;;;3.65;100.00
5753;BME280;2901;42.140;24.760;2023-12-20T04:50:20;99629.56;;;3.61;100.00
5753;BME280;2901;42.140;24.760;2023-12-20T04:52:46;99618.88;;;3.43;100.00
5753;BME280;2901;42.140;24.760;2023-12-20T04:55:12;99628.38;;;3.47;100.00
5753;BME280;2901;42.140;24.760;2023-12-20T04:57:37;99634.53;;;3.55;100.00
5753;BME280;2901;42.140;24.760;2023-12-20T05:00:03;99631.13;;;3.56;100.00
5753;BME280;2901;42.140;24.760;2023-12-20T05:02:29;99636.25;;;3.56;100.00
5753;BME280;2901;42.140;24.760;2023-12-20T05:04:55;99637.09;;;3.55;100.00
5753;BME280;2901;42.140;24.760;2023-12-20T05:07:20;99625.88;;;3.50;100.00
5753;BME280;2901;42.140;24.760;2023-12-20T05:09:45;99619.13;;;3.52;100.00
5753;BME280;2901;42.140;24.760;2023-12-20T05:12:11;99612.06;;;3.43;100.00
5753;BME280;2901;42.140;24.760;2023-12-20T05:14:36;99619.78;;;3.45;100.00
5753;BME280;2901;42.140;24.760;2023-12-20T05:17:02;99607.00;;;3.45;100.00
5753;BME280;2901;42.140;24.760;2023-12-20T05:19:28;99615.22;;;3.32;100.00
5753;BME280;2901;42.140;24.760;2023-12-20T05:21:53;99612.66;;;3.32;100.00
5753;BME280;2901;42.140;24.760;2023-12-20T05:24:19;99605.50;;;3.19;100.00
5753;BME280;2901;42.140;24.760;2023-12-20T05:26:44;99607.75;;;3.06;100.00
5753;BME280;2901;42.140;24.760;2023-12-20T05:29:10;99611.22;;;3.08;100.00
5753;BME280;2901;42.140;24.760;2023-12-20T05:31:35;99604.38;;;3.07;100.00
5753;BME280;2901;42.140;24.760;2023-12-20T05:34:00;99603.34;;;2.99;100.00
5753;BME280;2901;42.140;24.760;2023-12-20T05:36:26;99594.94;;;3.05;100.00
5753;BME280;2901;42.140;24.760;2023-12-20T05:38:51;99591.44;;;3.01;100.00
5753;BME280;2901;42.140;24.760;2023-12-20T05:41:16;99590.50;;;2.98;100.00
5753;BME280;2901;42.140;24.760;2023-12-20T05:43:42;99584.50;;;2.97;100.00
5753;BME280;2901;42.140;24.760;2023-12-20T05:46:10;99581.94;;;2.97;100.00
5753;BME280;2901;42.140;24.760;2023-12-20T05:48:35;99584.44;;;2.94;100.00
5753;BME280;2901;42.140;24.760;2023-12-20T05:51:00;99588.66;;;2.92;100.00
5753;BME280;2901;42.140;24.760;2023-12-20T05:53:26;99580.91;;;2.89;100.00
5753;BME280;2901;42.140;24.760;2023-12-20T05:55:51;99577.50;;;2.90;100.00
5753;BME280;2901;42.140;24.760;2023-12-20T05:58:17;99574.25;;;2.96;100.00
5753;BME280;2901;42.140;24.760;2023-12-20T06:00:42;99575.28;;;3.02;100.00
5753;BME280;2901;42.140;24.760;2023-12-20T06:03:07;99580.41;;;3.04;100.00
5753;BME280;2901;42.140;24.760;2023-12-20T06:05:33;99573.47;;;3.00;100.00
5753;BME280;2901;42.140;24.760;2023-12-20T06:07:58;99571.13;;;3.07;100.00
5753;BME280;2901;42.140;24.760;2023-12-20T06:10:27;99561.63;;;3.03;100.00
5753;BME280;2901;42.140;24.760;2023-12-20T06:12:52;99564.16;;;3.02;100.00
5753;BME280;2901;42.140;24.760;2023-12-20T06:15:18;99572.16;;;2.80;100.00
5753;BME280;2901;42.140;24.760;2023-12-20T06:17:43;99565.38;;;2.83;100.00
5753;BME280;2901;42.140;24.760;2023-12-20T06:20:09;99572.31;;;2.87;100.00
5753;BME280;2901;42.140;24.760;2023-12-20T06:22:35;99581.13;;;2.98;100.00
5753;BME280;2901;42.140;24.760;2023-12-20T06:25:01;99570.25;;;3.07;100.00
5753;BME280;2901;42.140;24.760;2023-12-20T06:27:28;99575.56;;;3.14;100.00
5753;BME280;2901;42.140;24.760;2023-12-20T06:29:53;99572.03;;;3.09;100.00
5753;BME280;2901;42.140;24.760;2023-12-20T06:32:18;99559.19;;;3.08;100.00
5753;BME280;2901;42.140;24.760;2023-12-20T06:34:44;99556.75;;;3.12;100.00
5753;BME280;2901;42.140;24.760;2023-12-20T06:37:09;99556.84;;;3.16;100.00
5753;BME280;2901;42.140;24.760;2023-12-20T06:39:35;99571.25;;;3.13;100.00
5753;BME280;2901;42.140;24.760;2023-12-20T06:42:00;99573.16;;;3.21;100.00
5753;BME280;2901;42.140;24.760;2023-12-20T06:44:26;99578.34;;;3.24;100.00
5753;BME280;2901;42.140;24.760;2023-12-20T06:46:51;99556.84;;;3.16;100.00
5753;BME280;2901;42.140;24.760;2023-12-20T06:49:17;99568.34;;;3.34;100.00
5753;BME280;2901;42.140;24.760;2023-12-20T06:51:43;99568.69;;;3.48;100.00
5753;BME280;2901;42.140;24.760;2023-12-20T06:54:09;99567.28;;;3.62;100.00
5753;BME280;2901;42.140;24.760;2023-12-20T06:56:34;99560.75;;;3.75;100.00
5753;BME280;2901;42.140;24.760;2023-12-20T06:58:59;99561.78;;;3.84;100.00
5753;BME280;2901;42.140;24.760;2023-12-20T07:01:25;99564.53;;;3.93;100.00
5753;BME280;2901;42.140;24.760;2023-12-20T07:03:50;99557.69;;;3.92;100.00
5753;BME280;2901;42.140;24.760;2023-12-20T07:06:16;99562.97;;;3.98;100.00
5753;BME280;2901;42.140;24.760;2023-12-20T07:08:42;99557.91;;;4.03;100.00
5753;BME280;2901;42.140;24.760;2023-12-20T07:11:08;99552.97;;;4.12;100.00
5753;BME280;2901;42.140;24.760;2023-12-20T07:13:33;99550.56;;;4.18;100.00
5753;BME280;2901;42.140;24.760;2023-12-20T07:15:58;99558.38;;;4.26;100.00
5753;BME280;2901;42.140;24.760;2023-12-20T07:18:24;99548.28;;;4.35;100.00
5753;BME280;2901;42.140;24.760;2023-12-20T07:20:49;99545.19;;;4.51;100.00
5753;BME280;2901;42.140;24.760;2023-12-20T07:23:15;99524.84;;;4.60;100.00
5753;BME280;2901;42.140;24.760;2023-12-20T07:25:40;99538.19;;;4.90;100.00
5753;BME280;2901;42.140;24.760;2023-12-20T07:28:06;99523.91;;;5.06;100.00
5753;BME280;2901;42.140;24.760;2023-12-20T07:30:32;99537.03;;;5.27;100.00
5753;BME280;2901;42.140;24.760;2023-12-20T07:32:57;99530.25;;;5.31;100.00
5753;BME280;2901;42.140;24.760;2023-12-20T07:35:23;99526.69;;;5.19;100.00
5753;BME280;2901;42.140;24.760;2023-12-20T07:37:50;99521.69;;;5.29;100.00
5753;BME280;2901;42.140;24.760;2023-12-20T07:40:15;99527.72;;;5.34;100.00
5753;BME280;2901;42.140;24.760;2023-12-20T07:42:42;99523.53;;;5.39;100.00
5753;BME280;2901;42.140;24.760;2023-12-20T07:45:08;99521.88;;;5.44;100.00
5753;BME280;2901;42.140;24.760;2023-12-20T07:47:34;99530.41;;;5.40;100.00
5753;BME280;2901;42.140;24.760;2023-12-20T07:49:59;99526.13;;;5.39;100.00
5753;BME280;2901;42.140;24.760;2023-12-20T07:52:25;99524.56;;;5.50;100.00
5753;BME280;2901;42.140;24.760;2023-12-20T07:54:51;99533.38;;;5.70;100.00
5753;BME280;2901;42.140;24.760;2023-12-20T07:57:16;99520.69;;;5.81;100.00
5753;BME280;2901;42.140;24.760;2023-12-20T07:59:42;99513.06;;;5.85;100.00
5753;BME280;2901;42.140;24.760;2023-12-20T08:02:09;99512.34;;;5.97;100.00
5753;BME280;2901;42.140;24.760;2023-12-20T08:04:34;99507.34;;;6.06;100.00
5753;BME280;2901;42.140;24.760;2023-12-20T08:07:00;99510.88;;;6.15;100.00
5753;BME280;2901;42.140;24.760;2023-12-20T08:09:25;99511.84;;;6.26;100.00
5753;BME280;2901;42.140;24.760;2023-12-20T08:11:51;99513.69;;;6.38;100.00
5753;BME280;2901;42.140;24.760;2023-12-20T08:14:16;99501.75;;;6.42;99.56
5753;BME280;2901;42.140;24.760;2023-12-20T08:16:41;99499.41;;;6.67;99.86
5753;BME280;2901;42.140;24.760;2023-12-20T08:19:07;99499.59;;;6.92;98.75
5753;BME280;2901;42.140;24.760;2023-12-20T08:21:33;99496.34;;;7.12;98.86
5753;BME280;2901;42.140;24.760;2023-12-20T08:23:58;99499.03;;;7.30;95.47
5753;BME280;2901;42.140;24.760;2023-12-20T08:26:25;99499.13;;;7.46;95.35
5753;BME280;2901;42.140;24.760;2023-12-20T08:28:51;99495.00;;;7.73;95.20
5753;BME280;2901;42.140;24.760;2023-12-20T08:31:18;99493.38;;;8.00;93.90
5753;BME280;2901;42.140;24.760;2023-12-20T08:33:44;99486.59;;;8.20;92.27
5753;BME280;2901;42.140;24.760;2023-12-20T08:36:11;99480.63;;;8.44;91.23
5753;BME280;2901;42.140;24.760;2023-12-20T08:38:36;99466.91;;;8.55;89.23
5753;BME280;2901;42.140;24.760;2023-12-20T08:41:02;99467.75;;;8.60;89.80
5753;BME280;2901;42.140;24.760;2023-12-20T08:43:30;99466.03;;;8.62;89.12
5753;BME280;2901;42.140;24.760;2023-12-20T08:45:56;99466.03;;;8.62;88.82
5753;BME280;2901;42.140;24.760;2023-12-20T08:48:21;99460.03;;;8.59;88.92
5753;BME280;2901;42.140;24.760;2023-12-20T08:50:46;99452.25;;;8.60;88.63
5753;BME280;2901;42.140;24.760;2023-12-20T08:53:14;99445.38;;;8.46;89.77
5753;BME280;2901;42.140;24.760;2023-12-20T08:55:40;99443.66;;;8.39;89.72
5753;BME280;2901;42.140;24.760;2023-12-20T08:58:06;99431.59;;;8.34;90.01
5753;BME280;2901;42.140;24.760;2023-12-20T09:00:33;99429.88;;;8.33;90.58
5753;BME280;2901;42.140;24.760;2023-12-20T09:02:59;99428.97;;;8.25;90.79
5753;BME280;2901;42.140;24.760;2023-12-20T09:05:24;99425.53;;;8.19;92.42
5753;BME280;2901;42.140;24.760;2023-12-20T09:07:50;99416.03;;;8.10;92.96
5753;BME280;2901;42.140;24.760;2023-12-20T09:10:16;99411.78;;;8.18;93.46
5753;BME280;2901;42.140;24.760;2023-12-20T09:12:41;99407.53;;;8.29;93.19
5753;BME280;2901;42.140;24.760;2023-12-20T09:15:08;99398.06;;;8.34;92.41
5753;BME280;2901;42.140;24.760;2023-12-20T09:17:33;99395.50;;;8.56;92.29
5753;BME280;2901;42.140;24.760;2023-12-20T09:19:58;99388.56;;;8.93;91.61
5753;BME280;2901;42.140;24.760;2023-12-20T09:22:25;99384.19;;;9.26;88.81
5753;BME280;2901;42.140;24.760;2023-12-20T09:24:51;99375.47;;;9.58;87.12
5753;BME280;2901;42.140;24.760;2023-12-20T09:27:16;99371.84;;;9.89;86.43
5753;BME280;2901;42.140;24.760;2023-12-20T09:29:41;99380.25;;;10.24;84.69
5753;BME280;2901;42.140;24.760;2023-12-20T09:32:07;99377.59;;;10.35;82.26
5753;BME280;2901;42.140;24.760;2023-12-20T09:34:33;99376.63;;;10.48;81.50
5753;BME280;2901;42.140;24.760;2023-12-20T09:36:58;99373.97;;;10.54;80.66
5753;BME280;2901;42.140;24.760;2023-12-20T09:39:24;99364.34;;;10.71;80.46
5753;BME280;2901;42.140;24.760;2023-12-20T09:42:11;99359.03;;;10.85;79.51
5753;BME280;2901;42.140;24.760;2023-12-20T09:44:36;99349.44;;;10.96;78.86
5753;BME280;2901;42.140;24.760;2023-12-20T09:47:03;99345.22;;;10.86;77.03
5753;BME280;2901;42.140;24.760;2023-12-20T09:49:30;99345.44;;;10.63;77.56
5753;BME280;2901;42.140;24.760;2023-12-20T09:51:56;99328.94;;;10.70;78.63
5753;BME280;2901;42.140;24.760;2023-12-20T09:54:22;99326.50;;;10.60;79.54
5753;BME280;2901;42.140;24.760;2023-12-20T09:56:48;99327.28;;;10.66;79.72
5753;BME280;2901;42.140;24.760;2023-12-20T09:59:14;99328.94;;;10.73;79.45
5753;BME280;2901;42.140;24.760;2023-12-20T10:01:40;99323.78;;;10.73;78.29
5753;BME280;2901;42.140;24.760;2023-12-20T10:04:08;99310.75;;;10.78;78.35
5753;BME280;2901;42.140;24.760;2023-12-20T10:06:43;99312.31;;;10.94;76.50
5753;BME280;2901;42.140;24.760;2023-12-20T10:09:12;99300.19;;;10.98;75.36
5753;BME280;2901;42.140;24.760;2023-12-20T10:11:38;99292.25;;;11.13;74.41
5753;BME280;2901;42.140;24.760;2023-12-20T10:14:04;99295.78;;;11.04;73.96
5753;BME280;2901;42.140;24.760;2023-12-20T10:16:31;99278.63;;;10.94;75.13
5753;BME280;2901;42.140;24.760;2023-12-20T10:18:58;99278.63;;;10.94;74.05
5753;BME280;2901;42.140;24.760;2023-12-20T10:21:24;99277.94;;;10.78;73.69
5753;BME280;2901;42.140;24.760;2023-12-20T10:23:52;99280.47;;;10.84;74.35
5753;BME280;2901;42.140;24.760;2023-12-20T10:26:21;99269.91;;;11.03;74.13
5753;BME280;2901;42.140;24.760;2023-12-20T10:28:50;99268.03;;;11.15;72.10
5753;BME280;2901;42.140;24.760;2023-12-20T10:31:33;99266.22;;;11.22;71.06
5753;BME280;2901;42.140;24.760;2023-12-20T10:34:00;99255.88;;;11.19;71.62
5753;BME280;2901;42.140;24.760;2023-12-20T10:36:27;99251.81;;;10.97;72.29
5753;BME280;2901;42.140;24.760;2023-12-20T10:38:54;99255.31;;;10.96;71.96
5753;BME280;2901;42.140;24.760;2023-12-20T10:41:25;99252.78;;;10.89;72.37
5753;BME280;2901;42.140;24.760;2023-12-20T10:43:51;99241.66;;;10.83;73.63
5753;BME280;2901;42.140;24.760;2023-12-20T10:46:19;99233.84;;;10.86;73.09
5753;BME280;2901;42.140;24.760;2023-12-20T10:48:45;99222.78;;;10.73;72.85
5753;BME280;2901;42.140;24.760;2023-12-20T10:51:13;99215.72;;;10.84;73.08
5753;BME280;2901;42.140;24.760;2023-12-20T10:53:42;99206.13;;;10.92;72.92
5753;BME280;2901;42.140;24.760;2023-12-20T10:56:12;99193.09;;;10.99;72.30
5753;BME280;2901;42.140;24.760;2023-12-20T10:58:41;99206.38;;;11.38;71.48
5753;BME280;2901;42.140;24.760;2023-12-20T11:01:08;99201.66;;;11.63;70.74
5753;BME280;2901;42.140;24.760;2023-12-20T11:03:35;99203.09;;;11.84;69.04
5753;BME280;2901;42.140;24.760;2023-12-20T11:08:47;99180.81;;;12.21;67.41
5753;BME280;2901;42.140;24.760;2023-12-20T11:14:00;99182.28;;;12.79;63.56
5753;BME280;2901;42.140;24.760;2023-12-20T11:16:27;99175.69;;;13.04;63.15
5753;BME280;2901;42.140;24.760;2023-12-20T11:18:52;99177.13;;;13.20;61.63
5753;BME280;2901;42.140;24.760;2023-12-20T11:21:18;99178.72;;;13.24;60.47
5753;BME280;2901;42.140;24.760;2023-12-20T11:23:43;99173.41;;;13.30;60.73
5753;BME280;2901;42.140;24.760;2023-12-20T11:26:08;99161.38;;;13.26;59.94
5753;BME280;2901;42.140;24.760;2023-12-20T11:28:34;99176.25;;;13.20;59.64
5753;BME280;2901;42.140;24.760;2023-12-20T11:31:02;99158.91;;;13.20;59.62
5753;BME280;2901;42.140;24.760;2023-12-20T11:33:45;99143.84;;;12.94;59.98
5753;BME280;2901;42.140;24.760;2023-12-20T11:36:18;99148.44;;;12.82;60.92
5753;BME280;2901;42.140;24.760;2023-12-20T11:38:57;99142.69;;;12.68;61.87
5753;BME280;2901;42.140;24.760;2023-12-20T11:41:26;99141.19;;;12.58;61.19
5753;BME280;2901;42.140;24.760;2023-12-20T11:43:55;99138.00;;;12.43;62.02
5753;BME280;2901;42.140;24.760;2023-12-20T11:46:21;99130.25;;;12.40;64.01
5753;BME280;2901;42.140;24.760;2023-12-20T11:48:48;99122.47;;;12.40;63.57
5753;BME280;2901;42.140;24.760;2023-12-20T11:51:14;99115.81;;;12.27;64.46
5753;BME280;2901;42.140;24.760;2023-12-20T11:53:40;99116.56;;;12.32;63.16
5753;BME280;2901;42.140;24.760;2023-12-20T11:56:06;99109.91;;;12.19;63.57
5753;BME280;2901;42.140;24.760;2023-12-20T11:58:32;99099.63;;;12.15;64.76
5753;BME280;2901;42.140;24.760;2023-12-20T12:00:58;99093.50;;;12.17;65.79
5753;BME280;2901;42.140;24.760;2023-12-20T12:03:23;99095.19;;;12.20;65.99
5753;BME280;2901;42.140;24.760;2023-12-20T12:05:49;99084.78;;;12.21;66.31
5753;BME280;2901;42.140;24.760;2023-12-20T12:08:15;99087.34;;;12.23;67.21
5753;BME280;2901;42.140;24.760;2023-12-20T12:10:41;99077.81;;;12.22;66.14
5753;BME280;2901;42.140;24.760;2023-12-20T12:13:06;99079.88;;;12.06;66.73
5753;BME280;2901;42.140;24.760;2023-12-20T12:15:32;99072.09;;;12.06;67.44
5753;BME280;2901;42.140;24.760;2023-12-20T12:17:57;99072.94;;;12.08;67.79
5753;BME280;2901;42.140;24.760;2023-12-20T12:20:24;99066.09;;;12.04;69.68
5753;BME280;2901;42.140;24.760;2023-12-20T12:23:04;99060.28;;;11.91;71.93
5753;BME280;2901;42.140;24.760;2023-12-20T12:25:30;99058.75;;;11.80;73.79
5753;BME280;2901;42.140;24.760;2023-12-20T12:27:57;99058.09;;;11.67;75.87
5753;BME280;2901;42.140;24.760;2023-12-20T12:30:23;99056.50;;;11.60;75.73
5753;BME280;2901;42.140;24.760;2023-12-20T12:32:48;99058.28;;;11.57;76.80
5753;BME280;2901;42.140;24.760;2023-12-20T12:35:14;99054.75;;;11.62;77.65
5753;BME280;2901;42.140;24.760;2023-12-20T12:37:40;99056.22;;;11.78;77.15
5753;BME280;2901;42.140;24.760;2023-12-20T12:40:10;99052.75;;;11.78;76.88
5753;BME280;2901;42.140;24.760;2023-12-20T12:42:37;99042.19;;;11.88;77.49
5753;BME280;2901;42.140;24.760;2023-12-20T12:45:02;99041.06;;;12.00;76.67
5753;BME280;2901;42.140;24.760;2023-12-20T12:47:28;99040.88;;;12.11;76.12
5753;BME280;2901;42.140;24.760;2023-12-20T12:49:54;99032.03;;;12.19;75.47
5753;BME280;2901;42.140;24.760;2023-12-20T12:52:19;99037.88;;;12.29;75.07
5753;BME280;2901;42.140;24.760;2023-12-20T12:54:45;99033.59;;;12.28;74.43
5753;BME280;2901;42.140;24.760;2023-12-20T12:57:11;99031.84;;;12.28;74.99
5753;BME280;2901;42.140;24.760;2023-12-20T12:59:37;99038.81;;;12.26;74.36
5753;BME280;2901;42.140;24.760;2023-12-20T13:02:02;99027.56;;;12.26;74.06
5753;BME280;2901;42.140;24.760;2023-12-20T13:04:28;99037.88;;;12.30;73.91
5753;BME280;2901;42.140;24.760;2023-12-20T13:06:53;99021.41;;;12.31;73.44
5753;BME280;2901;42.140;24.760;2023-12-20T13:09:19;99029.94;;;12.36;73.71
5753;BME280;2901;42.140;24.760;2023-12-20T13:11:44;99027.47;;;12.30;74.23